Tropical Cyclones
[Index]
Main Index Home Page Stock Weather Photos Extreme Storms Discussion Storm News and Storm Chasing Reports Tropical Cyclones / Hurricanes / Typhoons Weather Data and Links Wild Fires / Bushfires Weather Observation Techniques Weather Picture Catalogue Tornado Pictures and Reports Stock Video Footage and DVDs for sale
Season 2013-2014 Tropical Cyclone 201401 Track Map
Season 2013-2014 Summaries (Operational Data): [AU] [SIO] [SPAC] [SH]
<<- Previous TC | 2013-2014 Season | Next TC ->>

click for intensity scale information  Lat/long Grid: Show Hide

 Date Labels: Show Hide

Operational Tropical Cyclone Data : JTWC Advisories

Name: 201401
Number: 1401

20 Oct 2013 00:00 UTC to 29 Oct 2013 18:00 UTC

    date/time    lat    long     hPa   cat  kts
2013-10-20 00    6.3    87.2    1010         15          
2013-10-20 06    7.0    86.8    1010         15          
2013-10-20 12    7.5    86.3    1010         15          
2013-10-20 18    7.6    85.8    1010         15          
2013-10-21 00    7.4    84.9    1010         15          
2013-10-21 06    7.2    84.0    1007         20          
2013-10-21 12    7.2    83.1    1007         20          
2013-10-21 18    7.1    82.3    1004         25          
2013-10-22 00    7.1    81.6    1004         25          
2013-10-22 06    7.1    80.7    1004         25          
2013-10-22 12    7.0    79.8    1004         25          
2013-10-22 18    7.0    78.9    1004         25          
2013-10-23 00    7.3    78.1    1004         25          
2013-10-23 06    7.9    77.4    1004         25          
2013-10-23 12    8.6    76.5    1004         25          
2013-10-23 18    9.4    75.3    1004         25          
2013-10-24 00    9.2    74.0    1004         25          
2013-10-24 06    8.6    73.0    1004         25          
2013-10-24 12    8.6    72.1    1004         25          
2013-10-24 18    8.7    71.4    1004         25          
2013-10-25 00    8.9    70.7    1004         25          
2013-10-25 06    9.2    70.0    1004         25          
2013-10-25 12    9.5    69.3    1004         25          
2013-10-25 18    9.7    68.8    1000         30          
2013-10-26 00   10.2    68.4    1000         30          
2013-10-26 06   10.7    67.9    1000         30          
2013-10-26 12   11.3    67.3    1000         30          
2013-10-26 18   11.9    66.6    1000         30          
2013-10-27 00   12.4    65.6     996    1    35          
2013-10-27 06   12.9    64.7     996    1    35          
2013-10-27 12   13.0    64.0     996    1    35          
2013-10-27 18   13.0    63.2     996    1    35          
2013-10-28 00   13.1    62.5     996    1    35          
2013-10-28 06   13.6    62.0    1000         30          
2013-10-28 12   14.2    61.5    1007         20          
2013-10-28 18   14.3    60.1    1007         20          
2013-10-29 00   15.0    58.6    1007         20          
2013-10-29 06   14.1    57.2    1007         20          
2013-10-29 12   13.5    55.5    1007         20          
2013-10-29 18   13.1    54.0    1007         20          
Winds are 10-min average.

Tropical cyclone tracks developed by Michael Bath using operational warnings and advisories and Google Maps.


[Australian Severe Weather index] [Copyright Notice] [Email Contacts] [Search This Site] [Privacy Policy]
Document: tropical_cyclone_201401.htm Updated: 2 May 2017